Time;durP1;ratioP1;P1;durP2;ratioP2;P2;SDS_P1;SDS_P2;PMS_P1;PMS_P2;Temp;Humidity;BMP_temperature;BMP_pressure;BME280_temperature;BME280_humidity;BME280_pressure;Samples;Min_cycle;Max_cycle;Signal;HPM_P1;HPM_P2
2023/09/04 00:01:40;;;;;;;2.10;0.60;;;;;;;13.66;100.00;102346.28;5056207;28;20443;-70
2023/09/04 00:04:08;;;;;;;2.23;0.73;;;;;;;13.65;100.00;102345.47;5056507;28;20488;-70
2023/09/04 00:06:35;;;;;;;3.30;1.30;;;;;;;13.58;100.00;102344.94;5056262;28;20460;-71
2023/09/04 00:09:01;;;;;;;2.40;0.90;;;;;;;13.55;100.00;102340.88;5056871;28;20497;-70
2023/09/04 00:11:28;;;;;;;3.33;1.20;;;;;;;13.54;100.00;102341.13;5056407;28;20442;-71
2023/09/04 00:13:56;;;;;;;3.37;1.30;;;;;;;13.50;100.00;102331.91;5055993;28;20483;-70
2023/09/04 00:16:23;;;;;;;4.57;1.37;;;;;;;13.51;100.00;102336.28;5056374;28;20545;-71
2023/09/04 00:18:50;;;;;;;3.13;1.20;;;;;;;13.51;100.00;102339.00;5056228;28;20530;-69
2023/09/04 00:21:16;;;;;;;3.43;1.60;;;;;;;13.51;100.00;102341.72;5055951;28;20486;-70
2023/09/04 00:23:43;;;;;;;2.20;0.60;;;;;;;13.43;100.00;102336.84;5055877;28;20433;-69
2023/09/04 00:26:09;;;;;;;4.77;1.20;;;;;;;13.39;100.00;102336.56;5055949;28;20889;-69
2023/09/04 00:28:36;;;;;;;2.60;1.03;;;;;;;13.41;100.00;102347.16;5055959;28;20450;-71
2023/09/04 00:31:04;;;;;;;3.17;1.27;;;;;;;13.42;100.00;102346.09;5055990;28;20525;-71
2023/09/04 00:33:31;;;;;;;3.17;0.87;;;;;;;13.38;100.00;102343.91;5054791;28;20668;-71
2023/09/04 00:35:57;;;;;;;3.20;1.50;;;;;;;13.37;100.00;102355.91;5055489;28;20498;-71
2023/09/04 00:38:24;;;;;;;4.80;1.50;;;;;;;13.35;100.00;102351.81;5055890;28;20473;-71
2023/09/04 00:40:50;;;;;;;4.37;1.33;;;;;;;13.33;100.00;102346.66;5055600;28;20474;-71
2023/09/04 00:43:17;;;;;;;3.30;1.40;;;;;;;13.34;100.00;102351.00;5055734;28;20530;-70
2023/09/04 00:45:46;;;;;;;2.27;0.83;;;;;;;13.35;100.00;102349.09;5055674;28;20459;-71
2023/09/04 00:48:14;;;;;;;2.30;0.83;;;;;;;13.34;100.00;102356.44;5055910;28;20442;-71
2023/09/04 00:50:43;;;;;;;3.17;1.10;;;;;;;13.27;100.00;102349.66;5055777;28;20477;-71
2023/09/04 00:53:11;;;;;;;2.73;0.90;;;;;;;13.21;100.00;102351.56;5055679;28;20574;-71
2023/09/04 00:55:39;;;;;;;2.40;0.80;;;;;;;13.14;99.52;102343.66;5055731;28;20498;-71
2023/09/04 00:58:05;;;;;;;3.93;1.50;;;;;;;13.11;98.73;102340.69;5055462;28;20480;-71
2023/09/04 01:00:32;;;;;;;2.30;0.83;;;;;;;13.05;99.55;102349.94;5055642;28;20440;-71
2023/09/04 01:03:02;;;;;;;2.90;1.00;;;;;;;12.98;100.00;102354.84;5055420;28;20488;-71
2023/09/04 01:05:32;;;;;;;2.40;0.90;;;;;;;13.00;100.00;102349.94;5055377;28;20467;-71
2023/09/04 01:07:59;;;;;;;3.63;1.17;;;;;;;12.97;100.00;102347.75;5055249;28;20995;-71
2023/09/04 01:10:34;;;;;;;3.27;1.33;;;;;;;12.94;100.00;102351.06;5055112;28;20934;-71
2023/09/04 01:13:05;;;;;;;2.50;0.90;;;;;;;12.92;100.00;102351.31;5055118;28;20465;-71
2023/09/04 01:15:32;;;;;;;2.60;0.90;;;;;;;12.96;100.00;102351.56;5055270;28;20560;-71
2023/09/04 01:18:00;;;;;;;2.97;1.03;;;;;;;13.04;100.00;102351.03;5054959;28;20470;-71
2023/09/04 01:20:30;;;;;;;3.60;1.40;;;;;;;12.92;100.00;102353.22;5054643;28;21011;-70
2023/09/04 01:22:57;;;;;;;2.80;1.00;;;;;;;12.94;100.00;102342.88;5055043;28;20508;-70
2023/09/04 01:25:31;;;;;;;2.90;0.97;;;;;;;12.94;100.00;102340.16;5054869;28;20542;-71
2023/09/04 01:28:06;;;;;;;2.57;1.00;;;;;;;12.96;100.00;102344.22;5054972;28;20454;-71
2023/09/04 01:30:45;;;;;;;2.60;0.90;;;;;;;12.92;100.00;102343.13;5054771;28;20426;-70
2023/09/04 01:33:16;;;;;;;2.40;0.80;;;;;;;12.99;100.00;102337.44;5054733;28;20501;-70
2023/09/04 01:35:47;;;;;;;2.97;1.20;;;;;;;12.98;100.00;102346.69;5054219;28;20878;-70
2023/09/04 01:38:14;;;;;;;3.00;1.10;;;;;;;12.96;100.00;102337.97;5054945;28;20501;-69
2023/09/04 01:40:42;;;;;;;3.47;1.47;;;;;;;12.95;100.00;102336.34;5054267;28;20537;-69
2023/09/04 01:43:08;;;;;;;3.00;0.87;;;;;;;12.93;100.00;102333.91;5054277;28;20949;-70
2023/09/04 01:45:35;;;;;;;2.40;0.90;;;;;;;12.93;100.00;102338.53;5054158;28;20545;-69
2023/09/04 01:48:02;;;;;;;4.10;1.47;;;;;;;12.93;100.00;102349.44;5054546;28;20525;-70
2023/09/04 01:50:28;;;;;;;3.40;1.00;;;;;;;12.93;100.00;102355.69;5054227;28;20442;-69
2023/09/04 01:52:56;;;;;;;2.47;0.90;;;;;;;12.94;100.00;102349.13;5054273;28;20555;-69
2023/09/04 01:55:23;;;;;;;2.30;0.70;;;;;;;12.88;100.00;102364.66;5054240;28;20885;-69
2023/09/04 01:57:50;;;;;;;2.57;0.80;;;;;;;12.85;100.00;102354.31;5054034;28;20485;-70
2023/09/04 02:00:17;;;;;;;2.93;1.43;;;;;;;12.79;100.00;102344.53;5054300;28;20525;-70
2023/09/04 02:02:43;;;;;;;2.90;1.40;;;;;;;12.87;100.00;102343.97;5054206;28;20521;-70
2023/09/04 02:05:10;;;;;;;3.03;1.27;;;;;;;12.83;100.00;102345.59;5054366;28;20465;-70
2023/09/04 02:07:37;;;;;;;2.50;0.80;;;;;;;12.81;100.00;102345.06;5054050;28;20448;-70
2023/09/04 02:10:06;;;;;;;2.80;1.30;;;;;;;12.84;100.00;102349.97;5054238;28;20492;-70
2023/09/04 02:12:33;;;;;;;3.17;1.07;;;;;;;12.79;100.00;102349.97;5054185;28;20496;-70
2023/09/04 02:14:59;;;;;;;2.63;0.97;;;;;;;12.78;100.00;102350.22;5053731;28;20449;-70
2023/09/04 02:17:26;;;;;;;2.37;0.90;;;;;;;12.77;100.00;102343.16;5054002;28;20434;-70
2023/09/04 02:19:52;;;;;;;2.87;1.07;;;;;;;12.75;100.00;102340.72;5069540;22;20442;-68
2023/09/04 02:22:19;;;;;;;2.83;1.17;;;;;;;12.77;100.00;102346.69;5057609;28;20545;-67
2023/09/04 02:24:47;;;;;;;2.30;0.73;;;;;;;12.75;100.00;102353.47;5057550;28;20798;-67
2023/09/04 02:27:15;;;;;;;2.67;1.07;;;;;;;12.72;100.00;102349.41;5038174;28;20451;-68
2023/09/04 02:29:42;;;;;;;4.17;1.50;;;;;;;12.70;100.00;102357.00;5038185;28;20534;-67
2023/09/04 02:32:08;;;;;;;3.23;1.37;;;;;;;12.64;99.84;102363.53;5037663;28;20869;-67
2023/09/04 02:34:35;;;;;;;2.83;1.27;;;;;;;12.58;99.02;102353.78;5037483;28;20506;-67
2023/09/04 02:37:02;;;;;;;4.87;1.57;;;;;;;12.57;100.00;102352.13;5038024;28;20542;-67
2023/09/04 02:39:28;;;;;;;3.70;1.13;;;;;;;12.51;99.18;102347.78;5037854;28;20443;-68
2023/09/04 02:41:55;;;;;;;2.60;0.93;;;;;;;12.43;98.45;102351.03;5037557;28;20522;-68
2023/09/04 02:44:23;;;;;;;2.50;0.97;;;;;;;12.34;100.00;102351.53;5037830;28;20526;-68
2023/09/04 02:46:49;;;;;;;2.70;1.10;;;;;;;12.28;100.00;102344.47;5037818;28;20493;-68
2023/09/04 02:49:16;;;;;;;2.50;1.17;;;;;;;12.29;100.00;102332.53;5037956;28;20449;-68
2023/09/04 02:51:43;;;;;;;3.30;1.37;;;;;;;12.40;100.00;102332.56;5038167;28;20483;-68
2023/09/04 02:54:09;;;;;;;2.63;1.17;;;;;;;12.41;100.00;102334.19;5037831;28;20490;-68
2023/09/04 02:56:36;;;;;;;3.03;1.03;;;;;;;12.40;100.00;102338.81;5037734;28;20541;-68
2023/09/04 02:59:03;;;;;;;2.80;0.97;;;;;;;12.42;100.00;102333.91;5041659;28;20489;-67
2023/09/04 03:01:31;;;;;;;5.37;1.30;;;;;;;12.45;100.00;102344.25;5040814;28;20493;-68
2023/09/04 03:03:57;;;;;;;2.40;0.80;;;;;;;12.43;100.00;102335.53;5042262;28;20439;-68
2023/09/04 03:06:24;;;;;;;2.30;0.80;;;;;;;12.41;100.00;102340.44;5042266;28;20534;-68
2023/09/04 03:08:50;;;;;;;3.13;1.23;;;;;;;12.45;100.00;102343.44;5042568;28;20514;-68
2023/09/04 03:11:17;;;;;;;2.40;0.70;;;;;;;12.45;100.00;102344.25;5042171;28;20865;-68
2023/09/04 03:13:44;;;;;;;4.17;1.50;;;;;;;12.42;100.00;102339.34;5041287;28;20482;-68
2023/09/04 03:16:10;;;;;;;2.80;0.90;;;;;;;12.41;100.00;102337.72;5041681;28;20494;-68
2023/09/04 03:18:38;;;;;;;2.50;0.80;;;;;;;12.38;100.00;102336.34;5041940;28;21026;-68
2023/09/04 03:21:05;;;;;;;3.10;1.20;;;;;;;12.39;100.00;102334.44;5041683;28;20545;-68
2023/09/04 03:23:32;;;;;;;2.10;0.57;;;;;;;12.46;100.00;102345.06;5041409;28;20434;-68
2023/09/04 03:25:59;;;;;;;2.63;1.00;;;;;;;12.41;100.00;102353.19;5040981;28;20885;-68
2023/09/04 03:28:26;;;;;;;3.37;1.13;;;;;;;12.40;100.00;102357.81;5041067;28;20537;-68
2023/09/04 03:30:52;;;;;;;2.30;0.80;;;;;;;12.38;100.00;102363.50;5041599;28;20508;-68
2023/09/04 03:33:19;;;;;;;3.73;1.27;;;;;;;12.33;100.00;102358.06;5040923;28;20574;-68
2023/09/04 03:35:47;;;;;;;2.70;0.90;;;;;;;12.35;100.00;102364.06;5041023;28;20491;-68
2023/09/04 03:38:14;;;;;;;2.20;0.70;;;;;;;12.40;100.00;102376.03;5043979;28;20446;-68
2023/09/04 03:40:40;;;;;;;2.40;0.90;;;;;;;12.36;100.00;102371.13;5044429;28;20447;-68
2023/09/04 03:43:07;;;;;;;2.43;1.00;;;;;;;12.36;100.00;102371.13;5044281;28;20485;-68
2023/09/04 03:45:35;;;;;;;2.90;0.93;;;;;;;12.38;100.00;102368.94;5044351;28;20971;-68
2023/09/04 03:48:02;;;;;;;3.33;0.80;;;;;;;12.35;100.00;102374.94;5044753;28;20935;-68
2023/09/04 03:50:29;;;;;;;3.40;1.13;;;;;;;12.34;100.00;102375.19;5044027;28;20445;-68
2023/09/04 03:52:57;;;;;;;2.57;0.90;;;;;;;12.33;100.00;102366.22;5044341;28;20506;-68
2023/09/04 03:55:24;;;;;;;3.70;0.87;;;;;;;12.37;100.00;102366.50;5043778;28;20467;-69
2023/09/04 03:57:52;;;;;;;2.10;0.60;;;;;;;12.29;100.00;102367.03;5044594;28;20442;-68
2023/09/04 04:00:20;;;;;;;3.20;1.30;;;;;;;12.25;100.00;102372.19;5044435;28;20443;-68
2023/09/04 04:02:48;;;;;;;2.73;0.90;;;;;;;12.18;100.00;102377.06;5044679;28;20451;-68
2023/09/04 04:05:16;;;;;;;2.50;1.07;;;;;;;12.18;100.00;102376.25;5044238;28;20482;-68
2023/09/04 04:07:43;;;;;;;2.63;0.80;;;;;;;12.24;100.00;102381.41;5044298;28;20518;-68
2023/09/04 04:10:11;;;;;;;2.60;1.20;;;;;;;12.23;100.00;102387.13;5044054;28;20463;-69
2023/09/04 04:12:38;;;;;;;2.73;1.07;;;;;;;12.15;100.00;102390.38;5044344;28;20503;-68
2023/09/04 04:15:06;;;;;;;2.80;1.20;;;;;;;12.08;99.94;102390.59;5044760;28;20853;-69
2023/09/04 04:17:34;;;;;;;2.53;0.93;;;;;;;12.07;99.06;102395.22;5044720;28;20511;-69
2023/09/04 04:20:01;;;;;;;3.10;1.27;;;;;;;12.00;99.23;102393.84;5044146;28;20447;-69
2023/09/04 04:22:28;;;;;;;2.97;0.90;;;;;;;11.99;99.87;102403.06;5047217;28;20428;-68
2023/09/04 04:24:54;;;;;;;2.43;0.70;;;;;;;11.90;100.00;102391.88;5046252;28;20485;-69
2023/09/04 04:27:22;;;;;;;3.53;1.20;;;;;;;11.98;100.00;102398.72;5046591;28;20856;-69
2023/09/04 04:29:50;;;;;;;2.30;0.80;;;;;;;12.00;100.00;102400.09;5046176;28;20467;-68
2023/09/04 04:32:17;;;;;;;2.50;1.10;;;;;;;12.04;100.00;102395.78;5045759;28;20474;-68
2023/09/04 04:34:43;;;;;;;2.20;0.80;;;;;;;12.07;100.00;102400.66;5046168;28;20515;-68
2023/09/04 04:37:10;;;;;;;2.33;0.70;;;;;;;12.07;100.00;102399.84;5046013;28;20993;-68
2023/09/04 04:39:36;;;;;;;3.90;1.30;;;;;;;12.09;100.00;102395.78;5047081;28;20526;-69
2023/09/04 04:42:03;;;;;;;2.70;0.90;;;;;;;12.16;100.00;102395.53;5047402;28;20443;-69
2023/09/04 04:44:32;;;;;;;2.77;1.00;;;;;;;12.12;100.00;102389.78;5046137;28;20442;-69
2023/09/04 04:46:58;;;;;;;2.40;0.80;;;;;;;12.16;100.00;102400.13;5046762;28;20487;-69
2023/09/04 04:49:25;;;;;;;2.63;0.60;;;;;;;12.17;100.00;102397.16;5046519;28;20499;-69
2023/09/04 04:51:54;;;;;;;2.97;1.30;;;;;;;12.20;100.00;102398.53;5045911;28;20969;-68
2023/09/04 04:54:20;;;;;;;2.60;0.87;;;;;;;12.20;100.00;102410.22;5040772;28;20490;-68
2023/09/04 04:56:48;;;;;;;2.97;1.00;;;;;;;12.18;100.00;102406.13;5041573;28;20542;-68
2023/09/04 04:59:15;;;;;;;2.87;1.10;;;;;;;12.15;100.00;102402.03;5041328;28;20447;-68
2023/09/04 05:01:43;;;;;;;2.77;0.90;;;;;;;12.18;100.00;102396.09;5041454;28;20510;-68
2023/09/04 05:04:09;;;;;;;3.13;1.20;;;;;;;12.15;100.00;102404.75;5040844;28;20432;-68
2023/09/04 05:06:36;;;;;;;2.27;0.80;;;;;;;12.21;100.00;102411.84;5041477;28;20546;-68
2023/09/04 05:09:03;;;;;;;3.57;0.90;;;;;;;12.22;100.00;102418.94;5041544;28;20511;-68
2023/09/04 05:11:30;;;;;;;2.70;1.20;;;;;;;12.27;100.00;102412.69;5041109;28;20881;-68
2023/09/04 05:13:57;;;;;;;2.80;1.20;;;;;;;12.29;100.00;102411.31;5041283;28;20542;-68
2023/09/04 05:16:23;;;;;;;2.70;0.97;;;;;;;12.36;100.00;102420.03;5041590;28;20534;-68
2023/09/04 05:18:51;;;;;;;2.60;0.90;;;;;;;12.49;100.00;102416.00;5042051;28;20518;-68
2023/09/04 05:21:18;;;;;;;2.50;1.03;;;;;;;12.58;100.00;102411.66;5041527;28;20455;-68
2023/09/04 05:23:47;;;;;;;3.80;1.27;;;;;;;12.50;100.00;102419.53;5040269;28;20461;-68
2023/09/04 05:26:14;;;;;;;2.93;1.23;;;;;;;12.50;100.00;102419.53;5037347;28;20467;-68
2023/09/04 05:28:41;;;;;;;2.50;1.10;;;;;;;12.53;100.00;102427.97;5039388;28;20515;-68
2023/09/04 05:31:07;;;;;;;2.43;0.90;;;;;;;12.54;100.00;102428.78;5038904;28;20440;-68
2023/09/04 05:33:34;;;;;;;7.33;1.00;;;;;;;12.59;100.00;102426.88;5039054;28;20497;-68
2023/09/04 05:36:02;;;;;;;5.07;1.80;;;;;;;12.61;100.00;102421.16;5039107;28;20554;-68
2023/09/04 05:38:29;;;;;;;2.90;0.93;;;;;;;12.64;100.00;102428.78;5039084;28;20547;-68
2023/09/04 05:40:57;;;;;;;2.87;1.00;;;;;;;12.75;100.00;102430.47;5038458;28;20522;-68
2023/09/04 05:43:24;;;;;;;2.77;1.10;;;;;;;12.80;100.00;102426.94;5038328;28;20530;-68
2023/09/04 05:45:51;;;;;;;4.17;1.43;;;;;;;12.91;100.00;102433.19;5037549;28;21041;-68
2023/09/04 05:48:17;;;;;;;3.47;0.97;;;;;;;13.01;100.00;102444.06;5038926;28;20541;-68
2023/09/04 05:50:44;;;;;;;2.73;0.90;;;;;;;13.15;100.00;102439.72;5038866;28;20450;-68
2023/09/04 05:53:12;;;;;;;3.30;1.20;;;;;;;13.32;100.00;102440.25;5039054;28;20443;-68
2023/09/04 05:55:39;;;;;;;2.97;1.30;;;;;;;13.41;100.00;102437.00;5038522;28;20491;-68
2023/09/04 05:58:06;;;;;;;3.20;1.27;;;;;;;13.53;100.00;102426.63;5039133;28;20473;-68
2023/09/04 06:00:32;;;;;;;2.50;1.03;;;;;;;13.61;100.00;102434.25;5039109;28;20454;-68
2023/09/04 06:02:59;;;;;;;3.53;1.57;;;;;;;13.69;100.00;102436.41;5038389;28;20467;-68
2023/09/04 06:05:26;;;;;;;3.60;1.57;;;;;;;13.75;100.00;102443.47;5038845;28;20538;-68
2023/09/04 06:07:53;;;;;;;2.60;0.90;;;;;;;13.89;100.00;102432.78;5039169;28;20444;-68
2023/09/04 06:10:21;;;;;;;3.77;1.27;;;;;;;14.03;100.00;102436.59;5040172;28;20439;-70
2023/09/04 06:12:47;;;;;;;2.60;1.00;;;;;;;14.17;100.00;102430.53;5037864;28;20443;-67
2023/09/04 06:15:14;;;;;;;3.80;1.70;;;;;;;14.34;100.00;102436.41;5036196;28;20609;-67
2023/09/04 06:17:41;;;;;;;3.73;1.13;;;;;;;14.49;100.00;102424.66;5035367;28;20489;-68
2023/09/04 06:20:08;;;;;;;2.73;1.10;;;;;;;14.62;100.00;102426.75;5035351;28;20947;-67
2023/09/04 06:22:35;;;;;;;3.70;1.50;;;;;;;14.71;100.00;102421.50;5033736;28;20426;-67
2023/09/04 06:25:02;;;;;;;3.17;1.23;;;;;;;14.81;100.00;102426.88;5034064;28;20874;-67
2023/09/04 06:27:30;;;;;;;2.40;0.90;;;;;;;14.94;100.00;102420.78;5033766;28;20478;-67
2023/09/04 06:29:56;;;;;;;3.00;1.27;;;;;;;15.08;100.00;102426.41;5033637;28;20443;-67
2023/09/04 06:32:23;;;;;;;3.27;1.30;;;;;;;15.20;100.00;102421.38;5033721;28;20466;-67
2023/09/04 06:34:50;;;;;;;3.13;1.27;;;;;;;15.33;100.00;102428.09;5038850;28;20482;-68
2023/09/04 06:37:16;;;;;;;4.10;1.37;;;;;;;15.48;100.00;102422.47;5041665;28;20481;-67
2023/09/04 06:39:43;;;;;;;3.17;1.40;;;;;;;15.62;100.00;102430.78;5041780;28;20482;-67
2023/09/04 06:42:10;;;;;;;3.07;1.30;;;;;;;15.74;100.00;102427.69;5041629;28;20495;-67
2023/09/04 06:44:38;;;;;;;3.83;1.40;;;;;;;15.84;100.00;102439.31;5041879;28;20470;-67
2023/09/04 06:47:05;;;;;;;3.60;1.47;;;;;;;15.92;100.00;102431.59;5042093;28;20463;-66
2023/09/04 06:49:31;;;;;;;2.90;1.23;;;;;;;16.07;100.00;102428.66;5040028;28;20861;-66
2023/09/04 06:51:58;;;;;;;3.50;1.60;;;;;;;16.19;100.00;102434.53;5041565;28;20467;-67
2023/09/04 06:54:25;;;;;;;3.03;1.03;;;;;;;16.36;100.00;102432.09;5041217;28;20574;-67
2023/09/04 06:56:51;;;;;;;3.50;1.47;;;;;;;16.49;100.00;102429.75;5055402;28;20480;-67
2023/09/04 06:59:18;;;;;;;81.00;23.63;;;;;;;16.55;100.00;102428.56;5060137;28;20525;-67
2023/09/04 07:01:46;;;;;;;4.90;1.57;;;;;;;16.66;100.00;102421.84;5055014;28;20439;-68
2023/09/04 07:04:13;;;;;;;4.37;1.20;;;;;;;16.72;100.00;102428.88;5052994;28;20449;-69
2023/09/04 07:06:40;;;;;;;4.10;1.50;;;;;;;16.78;100.00;102432.38;5053166;28;20489;-69
2023/09/04 07:09:06;;;;;;;3.13;1.50;;;;;;;16.88;100.00;102432.19;5053320;28;20541;-68
2023/09/04 07:11:33;;;;;;;3.50;1.47;;;;;;;16.95;100.00;102426.31;5053379;28;20950;-68
2023/09/04 07:13:59;;;;;;;5.40;1.70;;;;;;;17.10;100.00;102428.81;5052893;28;20481;-68
2023/09/04 07:16:26;;;;;;;5.37;1.27;;;;;;;17.23;100.00;102425.31;5053086;28;20549;-69
2023/09/04 07:18:54;;;;;;;6.23;1.60;;;;;;;17.33;100.00;102427.84;5052890;28;21025;-68
2023/09/04 07:21:21;;;;;;;3.80;0.93;;;;;;;17.47;100.00;102429.81;5052736;28;20942;-69
2023/09/04 07:23:47;;;;;;;2.37;0.83;;;;;;;17.58;100.00;102428.50;5053138;28;20442;-68
2023/09/04 07:26:14;;;;;;;3.23;1.30;;;;;;;17.68;99.28;102432.97;5052994;28;20489;-69
2023/09/04 07:28:40;;;;;;;2.60;0.90;;;;;;;17.79;98.61;102432.50;5053042;28;20442;-71
2023/09/04 07:31:17;;;;;;;3.23;1.20;;;;;;;17.88;97.96;102430.69;5052708;28;20504;-69
2023/09/04 07:33:43;;;;;;;2.67;0.93;;;;;;;17.99;97.94;102441.44;5053301;28;20451;-70
2023/09/04 07:36:11;;;;;;;3.50;1.00;;;;;;;18.11;95.02;102433.50;5052698;28;20933;-69
2023/09/04 07:38:38;;;;;;;3.50;1.20;;;;;;;18.13;94.81;102437.56;5052741;28;20930;-68
2023/09/04 07:41:05;;;;;;;4.17;2.00;;;;;;;18.31;93.00;102437.72;5052928;28;20525;-68
2023/09/04 07:43:32;;;;;;;4.40;1.30;;;;;;;18.43;92.50;102428.97;5053897;28;20827;-69
2023/09/04 07:46:00;;;;;;;3.57;1.67;;;;;;;18.49;90.81;102433.22;5056876;28;20511;-71
2023/09/04 07:48:27;;;;;;;3.63;1.83;;;;;;;18.57;90.27;102429.75;5056713;28;20525;-72
2023/09/04 07:50:53;;;;;;;3.30;1.20;;;;;;;18.63;89.39;102432.03;5056640;28;20469;-68
2023/09/04 07:53:22;;;;;;;3.67;1.30;;;;;;;18.71;88.52;102429.72;5056233;28;20434;-69
2023/09/04 07:55:49;;;;;;;2.83;1.10;;;;;;;18.65;89.11;102437.25;5056370;28;20507;-69
2023/09/04 07:58:16;;;;;;;3.80;1.57;;;;;;;18.73;89.32;102439.28;5056128;28;20922;-69
2023/09/04 08:00:45;;;;;;;2.80;1.00;;;;;;;18.85;88.88;102431.28;5056377;28;20445;-69
2023/09/04 08:03:12;;;;;;;3.27;1.20;;;;;;;18.94;88.81;102431.34;5056472;28;20872;-70
2023/09/04 08:05:38;;;;;;;3.03;1.00;;;;;;;19.02;87.34;102435.28;5056212;28;20461;-69
2023/09/04 08:08:09;;;;;;;4.40;1.00;;;;;;;19.12;86.14;102432.28;5056331;28;20525;-69
2023/09/04 08:10:39;;;;;;;2.77;0.93;;;;;;;19.22;85.80;102432.03;5056024;28;20785;-69
2023/09/04 08:13:07;;;;;;;3.27;1.00;;;;;;;19.27;86.24;102437.38;5056032;28;20427;-69
2023/09/04 08:15:34;;;;;;;2.70;1.07;;;;;;;19.29;86.29;102437.88;5055720;28;20829;-69
2023/09/04 08:18:01;;;;;;;3.40;1.30;;;;;;;19.38;86.57;102441.47;5055747;28;20470;-70
2023/09/04 08:20:29;;;;;;;3.10;1.13;;;;;;;19.44;86.17;102436.69;5061862;28;20485;-69
2023/09/04 08:22:55;;;;;;;4.87;1.20;;;;;;;19.50;85.59;102432.66;5059041;28;20427;-67
2023/09/04 08:25:22;;;;;;;3.20;1.23;;;;;;;19.56;84.89;102433.31;5068001;28;20462;-67
2023/09/04 08:27:50;;;;;;;5.90;1.30;;;;;;;19.63;84.18;102436.47;5066248;28;20441;-69
2023/09/04 08:30:17;;;;;;;3.37;0.90;;;;;;;19.70;84.24;102425.81;5067282;28;20501;-69
2023/09/04 08:32:44;;;;;;;2.73;0.97;;;;;;;19.75;84.42;102433.13;5067795;28;20438;-68
2023/09/04 08:35:11;;;;;;;2.57;1.00;;;;;;;19.83;83.83;102433.16;5066626;28;20533;-68
2023/09/04 08:37:38;;;;;;;2.90;1.00;;;;;;;19.93;82.61;102425.72;5069152;28;20513;-68
2023/09/04 08:40:06;;;;;;;3.33;1.33;;;;;;;20.01;79.84;102430.41;5066290;28;20537;-68
2023/09/04 08:42:33;;;;;;;2.70;0.83;;;;;;;20.10;81.06;102425.78;5064605;28;20473;-68
2023/09/04 08:45:06;;;;;;;3.27;1.27;;;;;;;20.13;81.20;102417.66;5066955;28;20444;-69
2023/09/04 08:47:36;;;;;;;4.03;1.20;;;;;;;20.21;80.99;102413.31;5065784;28;20423;-68
2023/09/04 08:50:04;;;;;;;2.60;0.70;;;;;;;20.32;80.23;102422.06;5065248;28;20469;-68
2023/09/04 08:52:31;;;;;;;4.03;1.33;;;;;;;20.37;81.11;102419.19;5064396;28;20869;-68
2023/09/04 08:54:59;;;;;;;2.70;0.90;;;;;;;20.34;78.74;102426.13;5063227;28;21060;-68
2023/09/04 08:57:27;;;;;;;2.60;0.90;;;;;;;20.47;79.43;102415.28;5065443;28;20449;-68
2023/09/04 08:59:54;;;;;;;3.67;1.40;;;;;;;20.49;78.50;102416.59;5061263;28;20445;-68
2023/09/04 09:02:22;;;;;;;3.03;0.90;;;;;;;20.55;77.01;102420.03;5055268;28;20449;-69
2023/09/04 09:04:50;;;;;;;2.97;1.13;;;;;;;20.58;78.32;102417.41;5055081;28;20553;-69
2023/09/04 09:07:17;;;;;;;3.63;1.40;;;;;;;20.63;78.83;102432.97;5054866;28;20529;-69
2023/09/04 09:09:50;;;;;;;2.50;0.80;;;;;;;20.75;76.35;102435.88;5055209;28;20484;-68
2023/09/04 09:12:17;;;;;;;2.67;1.00;;;;;;;20.79;74.96;102431.34;5055091;28;20422;-69
2023/09/04 09:14:43;;;;;;;4.10;1.23;;;;;;;20.89;75.25;102427.44;5054597;28;20843;-68
2023/09/04 09:17:14;;;;;;;2.63;0.93;;;;;;;20.90;76.59;102426.31;5055022;28;20490;-69
2023/09/04 09:19:43;;;;;;;5.07;1.67;;;;;;;20.80;77.38;102421.94;5054918;28;20423;-69
2023/09/04 09:22:12;;;;;;;7.67;1.30;;;;;;;20.84;78.43;102422.09;5054473;28;20568;-68
2023/09/04 09:24:52;;;;;;;4.10;1.50;;;;;;;20.84;76.50;102431.16;5054791;28;20934;-68
2023/09/04 09:27:20;;;;;;;2.67;1.10;;;;;;;20.98;76.71;102438.44;5054847;28;20446;-69
2023/09/04 09:29:47;;;;;;;3.57;1.07;;;;;;;21.04;75.88;102431.66;5054678;28;20438;-69
2023/09/04 09:32:15;;;;;;;2.47;0.70;;;;;;;21.11;75.48;102429.19;5054688;28;20529;-69
2023/09/04 09:34:48;;;;;;;3.53;1.50;;;;;;;21.13;73.68;102435.19;5054442;28;20452;-69
2023/09/04 09:37:15;;;;;;;4.73;1.20;;;;;;;21.13;73.78;102436.00;5054652;28;20414;-69
2023/09/04 09:39:42;;;;;;;2.80;0.90;;;;;;;21.25;73.09;102427.06;5054638;28;20446;-69
2023/09/04 09:42:09;;;;;;;2.60;0.83;;;;;;;21.24;74.36;102425.41;5054516;28;20482;-69
2023/09/04 09:44:35;;;;;;;2.70;1.00;;;;;;;21.34;75.26;102416.84;5054469;28;20521;-69
2023/09/04 09:47:02;;;;;;;3.30;1.17;;;;;;;21.22;76.91;102416.69;5054254;28;20552;-69
2023/09/04 09:49:31;;;;;;;3.33;1.10;;;;;;;21.35;73.14;102423.97;5054024;28;20446;-69
2023/09/04 09:51:58;;;;;;;2.20;0.77;;;;;;;21.50;72.25;102422.59;5054287;28;20445;-69
2023/09/04 09:54:34;;;;;;;3.00;1.10;;;;;;;21.62;71.85;102419.16;5054060;28;20446;-70
2023/09/04 09:57:02;;;;;;;3.90;1.10;;;;;;;21.66;71.67;102409.88;5054099;28;20493;-69
2023/09/04 09:59:30;;;;;;;5.20;1.00;;;;;;;21.75;72.18;102407.09;5054191;28;20484;-69
2023/09/04 10:01:57;;;;;;;2.37;0.97;;;;;;;21.82;72.31;102412.88;5053857;28;20799;-69
2023/09/04 10:04:25;;;;;;;2.70;0.90;;;;;;;21.91;71.74;102408.16;5054115;28;20466;-69
2023/09/04 10:06:54;;;;;;;2.43;0.97;;;;;;;22.00;70.34;102404.50;5053490;28;20808;-69
2023/09/04 10:09:23;;;;;;;3.10;1.00;;;;;;;21.99;68.77;102408.41;5054086;28;20880;-69
2023/09/04 10:11:59;;;;;;;3.47;1.07;;;;;;;22.08;69.35;102409.16;5053655;28;20442;-69
2023/09/04 10:14:31;;;;;;;3.43;1.13;;;;;;;22.08;69.52;102409.97;5053646;28;20428;-69
2023/09/04 10:17:00;;;;;;;2.40;1.00;;;;;;;22.15;69.55;102403.97;5053858;28;20846;-69
2023/09/04 10:19:31;;;;;;;2.70;0.87;;;;;;;22.16;72.87;102405.56;5053846;28;20441;-69
2023/09/04 10:22:03;;;;;;;2.80;1.03;;;;;;;22.18;70.37;102408.81;5053735;28;20484;-69
2023/09/04 10:24:39;;;;;;;4.20;1.13;;;;;;;22.31;67.54;102410.50;5053952;28;20978;-69
2023/09/04 10:27:09;;;;;;;2.60;0.90;;;;;;;22.31;68.14;102402.22;5053490;28;20867;-69
2023/09/04 10:29:42;;;;;;;4.17;0.80;;;;;;;22.41;66.63;102398.25;5053736;28;20821;-70
2023/09/04 10:32:11;;;;;;;2.53;1.00;;;;;;;22.44;68.54;102405.03;5053714;28;20422;-68
2023/09/04 10:34:40;;;;;;;2.70;1.00;;;;;;;22.52;66.71;102406.91;5053339;28;20813;-69
2023/09/04 10:37:07;;;;;;;2.33;0.70;;;;;;;22.47;68.35;102399.63;5053696;28;20540;-70
2023/09/04 10:39:35;;;;;;;2.57;0.97;;;;;;;22.51;67.69;102392.28;5053870;28;20532;-70
2023/09/04 10:42:02;;;;;;;2.67;0.90;;;;;;;22.50;67.83;102389.88;5053189;28;20512;-69
2023/09/04 10:44:48;;;;;;;3.00;0.80;;;;;;;22.64;67.01;102390.41;5053179;28;20461;-69
2023/09/04 10:47:16;;;;;;;3.03;1.10;;;;;;;22.79;65.62;102383.41;5053375;28;20442;-69
2023/09/04 10:49:43;;;;;;;2.50;0.77;;;;;;;22.92;66.30;102374.84;5053100;28;21020;-69
2023/09/04 10:52:10;;;;;;;2.90;1.17;;;;;;;23.05;65.25;102377.66;5053354;28;20478;-69
2023/09/04 10:54:38;;;;;;;2.70;1.00;;;;;;;23.23;63.72;102381.03;5053422;28;20436;-69
2023/09/04 10:57:07;;;;;;;2.70;0.90;;;;;;;23.33;62.24;102375.03;5052906;28;20584;-70
2023/09/04 11:00:01;;;;;;;2.60;1.10;;;;;;;23.46;62.43;102379.41;5053301;28;20489;-70
2023/09/04 11:02:29;;;;;;;2.23;0.93;;;;;;;23.52;61.48;102375.28;5053246;28;20426;-69
2023/09/04 11:04:56;;;;;;;2.83;0.77;;;;;;;23.63;62.24;102375.63;5053150;28;20444;-69
2023/09/04 11:07:30;;;;;;;3.17;1.07;;;;;;;23.67;60.66;102369.06;5053240;28;20438;-69
2023/09/04 11:10:29;;;;;;;2.50;0.90;;;;;;;23.80;59.40;102367.09;5053258;28;20422;-70
2023/09/04 11:12:55;;;;;;;2.60;0.97;;;;;;;24.03;60.23;102369.38;5052917;28;20415;-69
2023/09/04 11:15:24;;;;;;;2.50;0.80;;;;;;;24.31;59.55;102378.53;5052973;28;20508;-69
2023/09/04 11:17:51;;;;;;;2.30;0.80;;;;;;;25.01;60.62;102380.88;5053040;28;20495;-69
2023/09/04 11:20:23;;;;;;;2.70;1.00;;;;;;;25.62;54.36;102387.97;5056978;28;20458;-69
2023/09/04 11:22:49;;;;;;;2.50;0.80;;;;;;;26.32;53.10;102384.41;5057229;28;20445;-69